sensor_id;sensor_type;location;lat;lon;timestamp;temperature;humidity
23207;DHT22;11773;52.570;13.052;2023-11-22T00:00:54;4.00;99.90
23207;DHT22;11773;52.570;13.052;2023-11-22T00:03:23;4.10;99.90
23207;DHT22;11773;52.570;13.052;2023-11-22T00:05:53;4.00;99.90
23207;DHT22;11773;52.570;13.052;2023-11-22T00:08:23;4.10;99.90
23207;DHT22;11773;52.570;13.052;2023-11-22T00:10:53;3.90;99.90
23207;DHT22;11773;52.570;13.052;2023-11-22T00:13:23;3.90;99.90
23207;DHT22;11773;52.570;13.052;2023-11-22T00:15:53;3.70;99.90
23207;DHT22;11773;52.570;13.052;2023-11-22T00:18:24;3.50;99.90
23207;DHT22;11773;52.570;13.052;2023-11-22T00:20:55;3.70;99.90
23207;DHT22;11773;52.570;13.052;2023-11-22T00:23:26;3.70;99.90
23207;DHT22;11773;52.570;13.052;2023-11-22T00:25:57;3.80;99.90
23207;DHT22;11773;52.570;13.052;2023-11-22T00:28:27;3.70;99.90
23207;DHT22;11773;52.570;13.052;2023-11-22T00:30:57;3.80;99.90
23207;DHT22;11773;52.570;13.052;2023-11-22T00:33:26;3.80;99.90
23207;DHT22;11773;52.570;13.052;2023-11-22T00:35:56;3.80;99.90
23207;DHT22;11773;52.570;13.052;2023-11-22T00:38:26;3.80;99.90
23207;DHT22;11773;52.570;13.052;2023-11-22T00:40:56;3.80;99.90
23207;DHT22;11773;52.570;13.052;2023-11-22T00:43:25;3.80;99.90
23207;DHT22;11773;52.570;13.052;2023-11-22T00:45:55;3.70;99.90
23207;DHT22;11773;52.570;13.052;2023-11-22T00:48:25;3.80;99.90
23207;DHT22;11773;52.570;13.052;2023-11-22T00:50:54;3.70;99.90
23207;DHT22;11773;52.570;13.052;2023-11-22T00:53:24;3.70;99.90
23207;DHT22;11773;52.570;13.052;2023-11-22T00:55:53;3.70;99.90
23207;DHT22;11773;52.570;13.052;2023-11-22T00:58:23;3.80;99.90
23207;DHT22;11773;52.570;13.052;2023-11-22T01:00:53;3.60;99.90
23207;DHT22;11773;52.570;13.052;2023-11-22T01:03:23;3.60;99.90
23207;DHT22;11773;52.570;13.052;2023-11-22T01:05:53;3.60;99.90
23207;DHT22;11773;52.570;13.052;2023-11-22T01:08:22;3.70;99.90
23207;DHT22;11773;52.570;13.052;2023-11-22T01:10:52;3.80;99.90
23207;DHT22;11773;52.570;13.052;2023-11-22T01:13:22;3.80;99.90
23207;DHT22;11773;52.570;13.052;2023-11-22T01:15:51;3.60;99.90
23207;DHT22;11773;52.570;13.052;2023-11-22T01:18:22;3.60;99.90
23207;DHT22;11773;52.570;13.052;2023-11-22T01:20:52;3.60;99.90
23207;DHT22;11773;52.570;13.052;2023-11-22T01:23:21;3.50;99.90
23207;DHT22;11773;52.570;13.052;2023-11-22T01:25:51;3.50;99.90
23207;DHT22;11773;52.570;13.052;2023-11-22T01:28:21;3.40;99.90
23207;DHT22;11773;52.570;13.052;2023-11-22T01:30:50;3.50;99.90
23207;DHT22;11773;52.570;13.052;2023-11-22T01:33:21;3.50;99.90
23207;DHT22;11773;52.570;13.052;2023-11-22T01:35:50;3.40;99.90
23207;DHT22;11773;52.570;13.052;2023-11-22T01:38:20;3.30;99.90
23207;DHT22;11773;52.570;13.052;2023-11-22T01:40:51;3.40;99.90
23207;DHT22;11773;52.570;13.052;2023-11-22T01:43:21;3.40;99.90
23207;DHT22;11773;52.570;13.052;2023-11-22T01:45:52;3.40;99.90
23207;DHT22;11773;52.570;13.052;2023-11-22T01:48:23;3.40;99.90
23207;DHT22;11773;52.570;13.052;2023-11-22T01:50:53;3.30;99.90
23207;DHT22;11773;52.570;13.052;2023-11-22T01:53:23;3.30;99.90
23207;DHT22;11773;52.570;13.052;2023-11-22T01:55:53;3.40;99.90
23207;DHT22;11773;52.570;13.052;2023-11-22T01:58:24;3.30;99.90
23207;DHT22;11773;52.570;13.052;2023-11-22T02:00:54;3.30;99.90
23207;DHT22;11773;52.570;13.052;2023-11-22T02:03:26;3.40;99.90
23207;DHT22;11773;52.570;13.052;2023-11-22T02:05:56;3.30;99.90
23207;DHT22;11773;52.570;13.052;2023-11-22T02:08:28;3.40;99.90
23207;DHT22;11773;52.570;13.052;2023-11-22T02:10:58;3.50;99.90
23207;DHT22;11773;52.570;13.052;2023-11-22T02:13:31;3.40;99.90
23207;DHT22;11773;52.570;13.052;2023-11-22T02:16:01;3.30;99.90
23207;DHT22;11773;52.570;13.052;2023-11-22T02:18:31;3.40;99.90
23207;DHT22;11773;52.570;13.052;2023-11-22T02:21:02;3.20;99.90
23207;DHT22;11773;52.570;13.052;2023-11-22T02:23:32;3.20;99.90
23207;DHT22;11773;52.570;13.052;2023-11-22T02:26:01;3.30;99.90
23207;DHT22;11773;52.570;13.052;2023-11-22T02:28:31;3.30;99.90
23207;DHT22;11773;52.570;13.052;2023-11-22T02:31:00;3.30;99.90
23207;DHT22;11773;52.570;13.052;2023-11-22T02:33:31;3.20;99.90
23207;DHT22;11773;52.570;13.052;2023-11-22T02:36:01;3.40;99.90
23207;DHT22;11773;52.570;13.052;2023-11-22T02:38:31;3.10;99.90
23207;DHT22;11773;52.570;13.052;2023-11-22T02:41:02;3.10;99.90
23207;DHT22;11773;52.570;13.052;2023-11-22T02:43:32;3.20;99.90
23207;DHT22;11773;52.570;13.052;2023-11-22T02:46:02;3.00;99.90
23207;DHT22;11773;52.570;13.052;2023-11-22T02:48:31;2.60;99.90
23207;DHT22;11773;52.570;13.052;2023-11-22T02:51:01;2.70;99.90
23207;DHT22;11773;52.570;13.052;2023-11-22T02:53:31;2.90;99.90
23207;DHT22;11773;52.570;13.052;2023-11-22T02:56:01;2.80;99.90
23207;DHT22;11773;52.570;13.052;2023-11-22T02:58:31;2.90;99.90
23207;DHT22;11773;52.570;13.052;2023-11-22T03:01:01;3.00;99.90
23207;DHT22;11773;52.570;13.052;2023-11-22T03:03:31;3.00;99.90
23207;DHT22;11773;52.570;13.052;2023-11-22T03:06:01;3.00;99.90
23207;DHT22;11773;52.570;13.052;2023-11-22T03:08:31;3.00;99.90
23207;DHT22;11773;52.570;13.052;2023-11-22T03:11:01;3.00;99.90
23207;DHT22;11773;52.570;13.052;2023-11-22T03:13:30;3.20;99.90
23207;DHT22;11773;52.570;13.052;2023-11-22T03:16:01;3.10;99.90
23207;DHT22;11773;52.570;13.052;2023-11-22T03:18:31;3.10;99.90
23207;DHT22;11773;52.570;13.052;2023-11-22T03:21:01;3.00;99.90
23207;DHT22;11773;52.570;13.052;2023-11-22T03:23:30;3.10;99.90
23207;DHT22;11773;52.570;13.052;2023-11-22T03:26:00;2.90;99.90
23207;DHT22;11773;52.570;13.052;2023-11-22T03:28:31;2.90;99.90
23207;DHT22;11773;52.570;13.052;2023-11-22T03:31:01;2.90;99.90
23207;DHT22;11773;52.570;13.052;2023-11-22T03:33:32;2.80;99.90
23207;DHT22;11773;52.570;13.052;2023-11-22T03:36:02;2.70;99.90
23207;DHT22;11773;52.570;13.052;2023-11-22T03:38:32;2.80;99.90
23207;DHT22;11773;52.570;13.052;2023-11-22T03:41:02;2.90;99.90
23207;DHT22;11773;52.570;13.052;2023-11-22T03:43:33;2.90;99.90
23207;DHT22;11773;52.570;13.052;2023-11-22T03:46:02;2.80;99.90
23207;DHT22;11773;52.570;13.052;2023-11-22T03:48:32;2.70;99.90
23207;DHT22;11773;52.570;13.052;2023-11-22T03:51:01;2.70;99.90
23207;DHT22;11773;52.570;13.052;2023-11-22T03:53:31;2.80;99.90
23207;DHT22;11773;52.570;13.052;2023-11-22T03:56:00;2.80;99.90
23207;DHT22;11773;52.570;13.052;2023-11-22T03:58:30;2.80;99.90
23207;DHT22;11773;52.570;13.052;2023-11-22T04:01:00;2.90;99.90
23207;DHT22;11773;52.570;13.052;2023-11-22T04:03:31;2.90;99.90
23207;DHT22;11773;52.570;13.052;2023-11-22T04:06:00;2.80;99.90
23207;DHT22;11773;52.570;13.052;2023-11-22T04:08:30;2.60;99.90
23207;DHT22;11773;52.570;13.052;2023-11-22T04:10:59;2.60;99.90
23207;DHT22;11773;52.570;13.052;2023-11-22T04:13:29;2.70;99.90
23207;DHT22;11773;52.570;13.052;2023-11-22T04:16:00;2.70;99.90
23207;DHT22;11773;52.570;13.052;2023-11-22T04:18:30;2.70;99.90
23207;DHT22;11773;52.570;13.052;2023-11-22T04:20:59;2.70;99.90
23207;DHT22;11773;52.570;13.052;2023-11-22T04:23:32;2.70;99.90
23207;DHT22;11773;52.570;13.052;2023-11-22T04:26:02;2.70;99.90
23207;DHT22;11773;52.570;13.052;2023-11-22T04:28:34;2.70;99.90
23207;DHT22;11773;52.570;13.052;2023-11-22T04:31:03;2.60;99.90
23207;DHT22;11773;52.570;13.052;2023-11-22T04:33:33;2.60;99.90
23207;DHT22;11773;52.570;13.052;2023-11-22T04:36:04;2.60;99.90
23207;DHT22;11773;52.570;13.052;2023-11-22T04:38:34;2.70;99.90
23207;DHT22;11773;52.570;13.052;2023-11-22T04:41:04;2.60;99.90
23207;DHT22;11773;52.570;13.052;2023-11-22T04:43:33;2.70;99.90
23207;DHT22;11773;52.570;13.052;2023-11-22T04:46:04;2.70;99.90
23207;DHT22;11773;52.570;13.052;2023-11-22T04:48:34;2.50;99.90
23207;DHT22;11773;52.570;13.052;2023-11-22T04:51:04;2.60;99.90
23207;DHT22;11773;52.570;13.052;2023-11-22T04:53:34;2.70;99.90
23207;DHT22;11773;52.570;13.052;2023-11-22T04:56:04;2.50;99.90
23207;DHT22;11773;52.570;13.052;2023-11-22T04:58:34;2.50;99.90
23207;DHT22;11773;52.570;13.052;2023-11-22T05:01:03;2.50;99.90
23207;DHT22;11773;52.570;13.052;2023-11-22T05:03:33;2.60;99.90
23207;DHT22;11773;52.570;13.052;2023-11-22T05:06:03;2.60;99.90
23207;DHT22;11773;52.570;13.052;2023-11-22T05:08:33;2.50;99.90
23207;DHT22;11773;52.570;13.052;2023-11-22T05:11:03;2.00;99.90
23207;DHT22;11773;52.570;13.052;2023-11-22T05:13:33;2.30;99.90
23207;DHT22;11773;52.570;13.052;2023-11-22T05:16:03;2.30;99.90
23207;DHT22;11773;52.570;13.052;2023-11-22T05:18:32;2.40;99.90
23207;DHT22;11773;52.570;13.052;2023-11-22T05:21:03;2.50;99.90
23207;DHT22;11773;52.570;13.052;2023-11-22T05:23:33;2.50;99.90
23207;DHT22;11773;52.570;13.052;2023-11-22T05:26:04;2.60;99.90
23207;DHT22;11773;52.570;13.052;2023-11-22T05:28:34;2.50;99.90
23207;DHT22;11773;52.570;13.052;2023-11-22T05:31:04;2.50;99.90
23207;DHT22;11773;52.570;13.052;2023-11-22T05:33:34;2.40;99.90
23207;DHT22;11773;52.570;13.052;2023-11-22T05:36:03;2.30;99.90
23207;DHT22;11773;52.570;13.052;2023-11-22T05:38:33;2.30;99.90
23207;DHT22;11773;52.570;13.052;2023-11-22T05:41:03;2.30;99.90
23207;DHT22;11773;52.570;13.052;2023-11-22T05:43:34;2.10;99.90
23207;DHT22;11773;52.570;13.052;2023-11-22T05:46:04;2.10;99.90
23207;DHT22;11773;52.570;13.052;2023-11-22T05:48:34;2.20;99.90
23207;DHT22;11773;52.570;13.052;2023-11-22T05:51:03;2.20;99.90
23207;DHT22;11773;52.570;13.052;2023-11-22T05:53:33;2.20;99.90
23207;DHT22;11773;52.570;13.052;2023-11-22T05:56:03;2.20;99.90
23207;DHT22;11773;52.570;13.052;2023-11-22T05:58:35;2.30;99.90
23207;DHT22;11773;52.570;13.052;2023-11-22T06:01:10;2.30;99.90
23207;DHT22;11773;52.570;13.052;2023-11-22T06:03:43;2.30;99.90
23207;DHT22;11773;52.570;13.052;2023-11-22T06:06:13;2.40;99.90
23207;DHT22;11773;52.570;13.052;2023-11-22T06:08:42;2.20;99.90
23207;DHT22;11773;52.570;13.052;2023-11-22T06:11:12;2.10;99.90
23207;DHT22;11773;52.570;13.052;2023-11-22T06:13:42;2.20;99.90
23207;DHT22;11773;52.570;13.052;2023-11-22T06:16:14;2.20;99.90
23207;DHT22;11773;52.570;13.052;2023-11-22T06:18:43;2.20;99.90
23207;DHT22;11773;52.570;13.052;2023-11-22T06:21:13;2.30;99.90
23207;DHT22;11773;52.570;13.052;2023-11-22T06:23:43;2.20;99.90
23207;DHT22;11773;52.570;13.052;2023-11-22T06:26:12;2.10;99.90
23207;DHT22;11773;52.570;13.052;2023-11-22T06:28:42;2.20;99.90
23207;DHT22;11773;52.570;13.052;2023-11-22T06:31:14;2.30;99.90
23207;DHT22;11773;52.570;13.052;2023-11-22T06:33:43;2.10;99.90
23207;DHT22;11773;52.570;13.052;2023-11-22T06:36:13;2.20;99.90
23207;DHT22;11773;52.570;13.052;2023-11-22T06:38:43;2.20;99.90
23207;DHT22;11773;52.570;13.052;2023-11-22T06:41:14;2.20;99.90
23207;DHT22;11773;52.570;13.052;2023-11-22T06:43:45;2.00;99.90
23207;DHT22;11773;52.570;13.052;2023-11-22T06:46:14;2.00;99.90
23207;DHT22;11773;52.570;13.052;2023-11-22T06:48:47;2.10;99.90
23207;DHT22;11773;52.570;13.052;2023-11-22T06:51:17;2.10;99.90
23207;DHT22;11773;52.570;13.052;2023-11-22T06:53:47;2.10;99.90
23207;DHT22;11773;52.570;13.052;2023-11-22T06:56:17;2.10;99.90
23207;DHT22;11773;52.570;13.052;2023-11-22T06:58:47;2.10;99.90
23207;DHT22;11773;52.570;13.052;2023-11-22T07:01:16;1.90;99.90
23207;DHT22;11773;52.570;13.052;2023-11-22T07:03:46;2.00;99.90
23207;DHT22;11773;52.570;13.052;2023-11-22T07:06:17;2.00;99.90
23207;DHT22;11773;52.570;13.052;2023-11-22T07:08:47;2.00;99.90
23207;DHT22;11773;52.570;13.052;2023-11-22T07:11:24;2.00;99.90
23207;DHT22;11773;52.570;13.052;2023-11-22T07:13:54;2.00;99.90
23207;DHT22;11773;52.570;13.052;2023-11-22T07:16:25;2.00;99.90
23207;DHT22;11773;52.570;13.052;2023-11-22T07:18:54;2.10;99.90
23207;DHT22;11773;52.570;13.052;2023-11-22T07:21:24;2.10;99.90
23207;DHT22;11773;52.570;13.052;2023-11-22T07:23:54;1.90;99.90
23207;DHT22;11773;52.570;13.052;2023-11-22T07:26:23;1.80;99.90
23207;DHT22;11773;52.570;13.052;2023-11-22T07:28:54;1.90;99.90
23207;DHT22;11773;52.570;13.052;2023-11-22T07:31:24;2.10;99.90
23207;DHT22;11773;52.570;13.052;2023-11-22T07:33:54;2.00;99.90
23207;DHT22;11773;52.570;13.052;2023-11-22T07:36:23;1.90;99.90
23207;DHT22;11773;52.570;13.052;2023-11-22T07:38:53;2.10;99.90
23207;DHT22;11773;52.570;13.052;2023-11-22T07:41:23;2.30;99.90
23207;DHT22;11773;52.570;13.052;2023-11-22T07:43:53;2.40;99.90
23207;DHT22;11773;52.570;13.052;2023-11-22T07:46:22;2.10;99.90
23207;DHT22;11773;52.570;13.052;2023-11-22T07:48:53;2.20;99.90
23207;DHT22;11773;52.570;13.052;2023-11-22T07:51:22;2.10;99.90
23207;DHT22;11773;52.570;13.052;2023-11-22T07:53:52;2.00;99.90
23207;DHT22;11773;52.570;13.052;2023-11-22T07:56:23;2.20;99.90
23207;DHT22;11773;52.570;13.052;2023-11-22T07:58:53;2.20;99.90
23207;DHT22;11773;52.570;13.052;2023-11-22T08:01:22;2.10;99.90
23207;DHT22;11773;52.570;13.052;2023-11-22T08:03:53;2.10;99.90
23207;DHT22;11773;52.570;13.052;2023-11-22T08:06:23;2.10;99.90
23207;DHT22;11773;52.570;13.052;2023-11-22T08:08:54;2.10;99.90
23207;DHT22;11773;52.570;13.052;2023-11-22T08:11:24;2.20;99.90
23207;DHT22;11773;52.570;13.052;2023-11-22T08:13:55;2.30;99.90
23207;DHT22;11773;52.570;13.052;2023-11-22T08:16:27;2.30;99.90
23207;DHT22;11773;52.570;13.052;2023-11-22T08:18:56;2.40;99.90
23207;DHT22;11773;52.570;13.052;2023-11-22T08:21:26;2.30;99.90
23207;DHT22;11773;52.570;13.052;2023-11-22T08:23:56;2.20;99.90
23207;DHT22;11773;52.570;13.052;2023-11-22T08:26:27;2.40;99.90
23207;DHT22;11773;52.570;13.052;2023-11-22T08:28:56;2.30;99.90
23207;DHT22;11773;52.570;13.052;2023-11-22T08:31:26;2.50;99.90
23207;DHT22;11773;52.570;13.052;2023-11-22T08:33:56;2.30;99.90
23207;DHT22;11773;52.570;13.052;2023-11-22T08:36:25;2.50;99.90
23207;DHT22;11773;52.570;13.052;2023-11-22T08:38:56;2.40;99.90
23207;DHT22;11773;52.570;13.052;2023-11-22T08:41:28;2.50;99.90
23207;DHT22;11773;52.570;13.052;2023-11-22T08:43:59;2.60;99.90
23207;DHT22;11773;52.570;13.052;2023-11-22T08:46:29;2.70;99.90
23207;DHT22;11773;52.570;13.052;2023-11-22T08:48:58;2.70;99.90
23207;DHT22;11773;52.570;13.052;2023-11-22T08:51:30;2.60;99.90
23207;DHT22;11773;52.570;13.052;2023-11-22T08:54:01;2.70;99.90
23207;DHT22;11773;52.570;13.052;2023-11-22T08:56:31;2.80;99.90
23207;DHT22;11773;52.570;13.052;2023-11-22T08:59:02;2.90;99.90
23207;DHT22;11773;52.570;13.052;2023-11-22T09:01:33;2.80;99.90
23207;DHT22;11773;52.570;13.052;2023-11-22T09:04:02;2.80;99.90
23207;DHT22;11773;52.570;13.052;2023-11-22T09:06:32;2.70;99.90
23207;DHT22;11773;52.570;13.052;2023-11-22T09:09:02;2.80;99.90
23207;DHT22;11773;52.570;13.052;2023-11-22T09:11:33;2.80;99.90
23207;DHT22;11773;52.570;13.052;2023-11-22T09:14:02;2.80;99.90
23207;DHT22;11773;52.570;13.052;2023-11-22T09:16:39;2.70;99.90
23207;DHT22;11773;52.570;13.052;2023-11-22T09:19:09;2.90;99.90
23207;DHT22;11773;52.570;13.052;2023-11-22T09:21:39;2.80;99.90
23207;DHT22;11773;52.570;13.052;2023-11-22T09:24:09;2.70;99.90
23207;DHT22;11773;52.570;13.052;2023-11-22T09:26:40;2.70;99.90
23207;DHT22;11773;52.570;13.052;2023-11-22T09:29:10;2.80;99.90
23207;DHT22;11773;52.570;13.052;2023-11-22T09:31:43;2.90;99.90
23207;DHT22;11773;52.570;13.052;2023-11-22T09:34:14;2.90;99.90
23207;DHT22;11773;52.570;13.052;2023-11-22T09:36:44;2.90;99.90
23207;DHT22;11773;52.570;13.052;2023-11-22T09:39:14;3.00;99.90
23207;DHT22;11773;52.570;13.052;2023-11-22T09:41:45;2.90;99.90
23207;DHT22;11773;52.570;13.052;2023-11-22T09:44:16;3.00;99.90
23207;DHT22;11773;52.570;13.052;2023-11-22T09:46:53;3.10;99.90
23207;DHT22;11773;52.570;13.052;2023-11-22T09:49:21;3.00;99.90
23207;DHT22;11773;52.570;13.052;2023-11-22T09:51:55;3.00;99.90
23207;DHT22;11773;52.570;13.052;2023-11-22T09:54:28;3.00;99.90
23207;DHT22;11773;52.570;13.052;2023-11-22T09:57:01;3.00;99.90
23207;DHT22;11773;52.570;13.052;2023-11-22T09:59:34;3.10;99.90
23207;DHT22;11773;52.570;13.052;2023-11-22T10:02:05;3.20;99.90
23207;DHT22;11773;52.570;13.052;2023-11-22T10:04:35;3.10;99.90
23207;DHT22;11773;52.570;13.052;2023-11-22T10:07:05;3.10;99.90
23207;DHT22;11773;52.570;13.052;2023-11-22T10:09:38;3.20;99.90
23207;DHT22;11773;52.570;13.052;2023-11-22T10:12:09;3.10;99.90
23207;DHT22;11773;52.570;13.052;2023-11-22T10:14:47;3.30;99.90
23207;DHT22;11773;52.570;13.052;2023-11-22T10:17:16;3.40;99.90
23207;DHT22;11773;52.570;13.052;2023-11-22T10:19:47;3.50;99.90
23207;DHT22;11773;52.570;13.052;2023-11-22T10:22:20;3.60;99.90
23207;DHT22;11773;52.570;13.052;2023-11-22T10:24:49;3.50;99.90
23207;DHT22;11773;52.570;13.052;2023-11-22T10:27:20;3.60;99.90
23207;DHT22;11773;52.570;13.052;2023-11-22T10:29:51;3.80;99.90
23207;DHT22;11773;52.570;13.052;2023-11-22T10:32:22;3.80;99.90
23207;DHT22;11773;52.570;13.052;2023-11-22T10:34:52;3.80;99.90
23207;DHT22;11773;52.570;13.052;2023-11-22T10:37:21;3.80;99.90
23207;DHT22;11773;52.570;13.052;2023-11-22T10:39:52;3.70;99.90
23207;DHT22;11773;52.570;13.052;2023-11-22T10:42:22;3.90;99.90
23207;DHT22;11773;52.570;13.052;2023-11-22T10:44:56;3.80;99.90
23207;DHT22;11773;52.570;13.052;2023-11-22T10:47:29;3.80;99.90
23207;DHT22;11773;52.570;13.052;2023-11-22T10:50:00;3.80;99.90
23207;DHT22;11773;52.570;13.052;2023-11-22T10:52:30;4.00;99.90
23207;DHT22;11773;52.570;13.052;2023-11-22T10:55:03;4.00;99.90
23207;DHT22;11773;52.570;13.052;2023-11-22T10:57:47;4.10;99.90
23207;DHT22;11773;52.570;13.052;2023-11-22T11:00:22;4.10;99.90
23207;DHT22;11773;52.570;13.052;2023-11-22T11:03:05;4.30;99.90
23207;DHT22;11773;52.570;13.052;2023-11-22T11:05:41;4.20;99.90
23207;DHT22;11773;52.570;13.052;2023-11-22T11:08:12;4.30;99.90
23207;DHT22;11773;52.570;13.052;2023-11-22T11:10:46;4.30;99.90
23207;DHT22;11773;52.570;13.052;2023-11-22T11:13:17;4.30;99.90
23207;DHT22;11773;52.570;13.052;2023-11-22T11:15:47;4.40;99.90
23207;DHT22;11773;52.570;13.052;2023-11-22T11:18:17;4.50;99.90
23207;DHT22;11773;52.570;13.052;2023-11-22T11:20:56;4.30;99.90
23207;DHT22;11773;52.570;13.052;2023-11-22T11:23:27;4.10;99.90
23207;DHT22;11773;52.570;13.052;2023-11-22T11:25:59;4.20;99.90
23207;DHT22;11773;52.570;13.052;2023-11-22T11:28:41;4.30;99.90
23207;DHT22;11773;52.570;13.052;2023-11-22T11:31:16;4.20;99.90
23207;DHT22;11773;52.570;13.052;2023-11-22T11:33:55;4.40;99.90
23207;DHT22;11773;52.570;13.052;2023-11-22T11:36:30;4.40;99.90
23207;DHT22;11773;52.570;13.052;2023-11-22T11:39:05;4.30;99.90
23207;DHT22;11773;52.570;13.052;2023-11-22T11:41:37;4.10;99.90
23207;DHT22;11773;52.570;13.052;2023-11-22T11:44:08;4.10;99.90
23207;DHT22;11773;52.570;13.052;2023-11-22T11:46:40;4.30;99.90
23207;DHT22;11773;52.570;13.052;2023-11-22T11:49:16;4.20;99.90
23207;DHT22;11773;52.570;13.052;2023-11-22T11:51:42;4.40;99.90
23207;DHT22;11773;52.570;13.052;2023-11-22T11:54:13;4.40;99.90
23207;DHT22;11773;52.570;13.052;2023-11-22T11:56:44;4.40;99.90
23207;DHT22;11773;52.570;13.052;2023-11-22T11:59:16;4.30;99.90
23207;DHT22;11773;52.570;13.052;2023-11-22T12:01:46;4.20;99.90
23207;DHT22;11773;52.570;13.052;2023-11-22T12:04:19;3.90;99.90
23207;DHT22;11773;52.570;13.052;2023-11-22T12:06:49;4.10;99.90
23207;DHT22;11773;52.570;13.052;2023-11-22T12:09:25;4.20;99.90
23207;DHT22;11773;52.570;13.052;2023-11-22T12:11:59;4.20;99.90
23207;DHT22;11773;52.570;13.052;2023-11-22T12:14:30;4.20;99.90
23207;DHT22;11773;52.570;13.052;2023-11-22T12:17:00;4.30;99.90
23207;DHT22;11773;52.570;13.052;2023-11-22T12:19:33;4.30;99.90
23207;DHT22;11773;52.570;13.052;2023-11-22T12:22:05;4.40;99.90
23207;DHT22;11773;52.570;13.052;2023-11-22T12:24:35;4.30;99.90
23207;DHT22;11773;52.570;13.052;2023-11-22T12:27:05;4.30;99.90
23207;DHT22;11773;52.570;13.052;2023-11-22T12:29:39;4.20;99.90
23207;DHT22;11773;52.570;13.052;2023-11-22T12:32:09;4.10;99.90
23207;DHT22;11773;52.570;13.052;2023-11-22T12:34:40;4.20;99.90
23207;DHT22;11773;52.570;13.052;2023-11-22T12:37:09;4.30;99.90
23207;DHT22;11773;52.570;13.052;2023-11-22T12:39:40;4.40;99.90
23207;DHT22;11773;52.570;13.052;2023-11-22T12:42:09;4.40;99.90
23207;DHT22;11773;52.570;13.052;2023-11-22T12:44:52;4.30;99.90
23207;DHT22;11773;52.570;13.052;2023-11-22T12:47:34;4.40;99.90
23207;DHT22;11773;52.570;13.052;2023-11-22T12:50:04;4.40;99.90
23207;DHT22;11773;52.570;13.052;2023-11-22T12:52:36;4.60;99.90
23207;DHT22;11773;52.570;13.052;2023-11-22T12:55:07;4.60;99.90
23207;DHT22;11773;52.570;13.052;2023-11-22T12:57:37;4.50;99.90
23207;DHT22;11773;52.570;13.052;2023-11-22T13:00:08;4.60;99.90
23207;DHT22;11773;52.570;13.052;2023-11-22T13:02:39;4.70;99.90
23207;DHT22;11773;52.570;13.052;2023-11-22T13:05:10;4.70;99.90
23207;DHT22;11773;52.570;13.052;2023-11-22T13:07:41;4.70;99.90
23207;DHT22;11773;52.570;13.052;2023-11-22T13:10:11;4.70;99.90
23207;DHT22;11773;52.570;13.052;2023-11-22T13:12:43;4.80;99.90
23207;DHT22;11773;52.570;13.052;2023-11-22T13:15:13;4.80;99.90
23207;DHT22;11773;52.570;13.052;2023-11-22T13:17:43;4.80;99.90
23207;DHT22;11773;52.570;13.052;2023-11-22T13:20:13;4.70;99.90
23207;DHT22;11773;52.570;13.052;2023-11-22T13:22:43;4.70;99.90
23207;DHT22;11773;52.570;13.052;2023-11-22T13:25:14;4.70;99.90
23207;DHT22;11773;52.570;13.052;2023-11-22T13:27:49;4.50;99.90
23207;DHT22;11773;52.570;13.052;2023-11-22T13:30:20;4.50;99.90
23207;DHT22;11773;52.570;13.052;2023-11-22T13:32:51;4.70;99.90
23207;DHT22;11773;52.570;13.052;2023-11-22T13:35:25;4.70;99.90
23207;DHT22;11773;52.570;13.052;2023-11-22T13:38:00;4.70;99.90
23207;DHT22;11773;52.570;13.052;2023-11-22T13:40:30;4.70;99.90
23207;DHT22;11773;52.570;13.052;2023-11-22T13:42:59;4.80;99.90
23207;DHT22;11773;52.570;13.052;2023-11-22T13:45:29;4.80;99.90
23207;DHT22;11773;52.570;13.052;2023-11-22T13:47:58;4.70;99.90
23207;DHT22;11773;52.570;13.052;2023-11-22T13:50:35;4.70;99.90
23207;DHT22;11773;52.570;13.052;2023-11-22T13:53:06;4.70;99.90
23207;DHT22;11773;52.570;13.052;2023-11-22T13:55:37;4.70;99.90
23207;DHT22;11773;52.570;13.052;2023-11-22T13:58:07;4.70;99.90
23207;DHT22;11773;52.570;13.052;2023-11-22T14:00:37;4.70;99.90
23207;DHT22;11773;52.570;13.052;2023-11-22T14:03:06;4.60;99.90
23207;DHT22;11773;52.570;13.052;2023-11-22T14:05:39;4.60;99.90
23207;DHT22;11773;52.570;13.052;2023-11-22T14:08:08;4.60;99.90
23207;DHT22;11773;52.570;13.052;2023-11-22T14:10:38;4.50;99.90
23207;DHT22;11773;52.570;13.052;2023-11-22T14:13:07;4.60;99.90
23207;DHT22;11773;52.570;13.052;2023-11-22T14:15:37;4.70;99.90
23207;DHT22;11773;52.570;13.052;2023-11-22T14:18:07;4.70;99.90
23207;DHT22;11773;52.570;13.052;2023-11-22T14:20:36;4.60;99.90
23207;DHT22;11773;52.570;13.052;2023-11-22T14:23:06;4.60;99.90
23207;DHT22;11773;52.570;13.052;2023-11-22T14:25:35;4.50;99.90
23207;DHT22;11773;52.570;13.052;2023-11-22T14:28:07;4.50;99.90
23207;DHT22;11773;52.570;13.052;2023-11-22T14:30:37;4.50;99.90
23207;DHT22;11773;52.570;13.052;2023-11-22T14:33:08;4.50;99.90
23207;DHT22;11773;52.570;13.052;2023-11-22T14:35:38;4.40;99.90
23207;DHT22;11773;52.570;13.052;2023-11-22T14:38:08;4.60;99.90
23207;DHT22;11773;52.570;13.052;2023-11-22T14:40:39;4.60;99.90
23207;DHT22;11773;52.570;13.052;2023-11-22T14:43:08;4.70;99.90
23207;DHT22;11773;52.570;13.052;2023-11-22T14:45:38;4.60;99.90
23207;DHT22;11773;52.570;13.052;2023-11-22T14:48:08;4.50;99.90
23207;DHT22;11773;52.570;13.052;2023-11-22T14:50:41;4.40;99.90
23207;DHT22;11773;52.570;13.052;2023-11-22T14:53:13;4.50;99.90
23207;DHT22;11773;52.570;13.052;2023-11-22T14:55:43;4.50;99.90
23207;DHT22;11773;52.570;13.052;2023-11-22T14:58:12;4.40;99.90
23207;DHT22;11773;52.570;13.052;2023-11-22T15:00:42;4.40;99.90
23207;DHT22;11773;52.570;13.052;2023-11-22T15:03:11;4.50;99.90
23207;DHT22;11773;52.570;13.052;2023-11-22T15:05:42;4.40;99.90
23207;DHT22;11773;52.570;13.052;2023-11-22T15:08:11;4.30;99.90
23207;DHT22;11773;52.570;13.052;2023-11-22T15:10:41;4.30;99.90
23207;DHT22;11773;52.570;13.052;2023-11-22T15:13:11;4.40;99.90
23207;DHT22;11773;52.570;13.052;2023-11-22T15:15:42;4.30;99.90
23207;DHT22;11773;52.570;13.052;2023-11-22T15:18:13;4.40;99.90
23207;DHT22;11773;52.570;13.052;2023-11-22T15:20:43;4.40;99.90
23207;DHT22;11773;52.570;13.052;2023-11-22T15:23:12;4.40;99.90
23207;DHT22;11773;52.570;13.052;2023-11-22T15:25:42;4.40;99.90
23207;DHT22;11773;52.570;13.052;2023-11-22T15:28:12;4.40;99.90
23207;DHT22;11773;52.570;13.052;2023-11-22T15:30:47;4.40;99.90
23207;DHT22;11773;52.570;13.052;2023-11-22T15:33:17;4.30;99.90
23207;DHT22;11773;52.570;13.052;2023-11-22T15:35:46;4.30;99.90
23207;DHT22;11773;52.570;13.052;2023-11-22T15:38:16;4.30;99.90
23207;DHT22;11773;52.570;13.052;2023-11-22T15:40:46;4.30;99.90
23207;DHT22;11773;52.570;13.052;2023-11-22T15:43:15;4.30;99.90
23207;DHT22;11773;52.570;13.052;2023-11-22T15:45:45;4.20;99.90
23207;DHT22;11773;52.570;13.052;2023-11-22T15:48:14;4.40;99.90
23207;DHT22;11773;52.570;13.052;2023-11-22T15:50:45;4.40;99.90